sensor_id;sensor_type;location;lat;lon;timestamp;P1;durP1;ratioP1;P2;durP2;ratioP2
9409;SDS011;4744;52.576;13.568;2024-01-16T00:00:42;1.13;;;1.00;;
9409;SDS011;4744;52.576;13.568;2024-01-16T00:03:10;2.28;;;1.10;;
9409;SDS011;4744;52.576;13.568;2024-01-16T00:05:37;1.20;;;1.10;;
9409;SDS011;4744;52.576;13.568;2024-01-16T00:08:04;2.65;;;1.30;;
9409;SDS011;4744;52.576;13.568;2024-01-16T00:10:31;1.35;;;1.15;;
9409;SDS011;4744;52.576;13.568;2024-01-16T00:12:58;4.15;;;1.98;;
9409;SDS011;4744;52.576;13.568;2024-01-16T00:15:25;1.63;;;1.50;;
9409;SDS011;4744;52.576;13.568;2024-01-16T00:17:52;1.80;;;1.30;;
9409;SDS011;4744;52.576;13.568;2024-01-16T00:20:20;1.47;;;1.10;;
9409;SDS011;4744;52.576;13.568;2024-01-16T00:22:48;1.98;;;1.27;;
9409;SDS011;4744;52.576;13.568;2024-01-16T00:25:15;1.95;;;1.30;;
9409;SDS011;4744;52.576;13.568;2024-01-16T00:27:45;1.65;;;1.00;;
9409;SDS011;4744;52.576;13.568;2024-01-16T00:30:12;1.42;;;0.90;;
9409;SDS011;4744;52.576;13.568;2024-01-16T00:32:39;2.35;;;0.90;;
9409;SDS011;4744;52.576;13.568;2024-01-16T00:35:06;1.40;;;0.90;;
9409;SDS011;4744;52.576;13.568;2024-01-16T00:37:35;1.20;;;0.88;;
9409;SDS011;4744;52.576;13.568;2024-01-16T00:40:03;1.10;;;0.98;;
9409;SDS011;4744;52.576;13.568;2024-01-16T00:42:30;1.98;;;0.90;;
9409;SDS011;4744;52.576;13.568;2024-01-16T00:44:57;1.45;;;0.80;;
9409;SDS011;4744;52.576;13.568;2024-01-16T00:47:24;0.93;;;0.90;;
9409;SDS011;4744;52.576;13.568;2024-01-16T00:49:51;1.57;;;1.00;;
9409;SDS011;4744;52.576;13.568;2024-01-16T00:52:18;1.43;;;0.93;;
9409;SDS011;4744;52.576;13.568;2024-01-16T00:54:47;1.37;;;1.07;;
9409;SDS011;4744;52.576;13.568;2024-01-16T00:57:14;2.00;;;1.10;;
9409;SDS011;4744;52.576;13.568;2024-01-16T00:59:44;2.70;;;1.60;;
9409;SDS011;4744;52.576;13.568;2024-01-16T01:02:11;1.33;;;1.00;;
9409;SDS011;4744;52.576;13.568;2024-01-16T01:04:38;0.87;;;0.80;;
9409;SDS011;4744;52.576;13.568;2024-01-16T01:07:06;1.27;;;0.70;;
9409;SDS011;4744;52.576;13.568;2024-01-16T01:09:33;0.77;;;0.57;;
9409;SDS011;4744;52.576;13.568;2024-01-16T01:12:01;0.53;;;0.47;;
9409;SDS011;4744;52.576;13.568;2024-01-16T01:14:28;2.92;;;0.85;;
9409;SDS011;4744;52.576;13.568;2024-01-16T01:16:56;0.73;;;0.70;;
9409;SDS011;4744;52.576;13.568;2024-01-16T01:19:23;1.13;;;0.73;;
9409;SDS011;4744;52.576;13.568;2024-01-16T01:21:50;1.33;;;0.90;;
9409;SDS011;4744;52.576;13.568;2024-01-16T01:24:17;1.00;;;0.73;;
9409;SDS011;4744;52.576;13.568;2024-01-16T01:26:44;2.10;;;1.00;;
9409;SDS011;4744;52.576;13.568;2024-01-16T01:29:12;0.60;;;0.60;;
9409;SDS011;4744;52.576;13.568;2024-01-16T01:31:39;1.07;;;0.73;;
9409;SDS011;4744;52.576;13.568;2024-01-16T01:34:06;3.10;;;1.20;;
9409;SDS011;4744;52.576;13.568;2024-01-16T01:36:33;0.77;;;0.60;;
9409;SDS011;4744;52.576;13.568;2024-01-16T01:39:00;1.83;;;0.90;;
9409;SDS011;4744;52.576;13.568;2024-01-16T01:41:28;1.63;;;0.97;;
9409;SDS011;4744;52.576;13.568;2024-01-16T01:43:55;1.13;;;0.80;;
9409;SDS011;4744;52.576;13.568;2024-01-16T01:46:23;1.00;;;0.80;;
9409;SDS011;4744;52.576;13.568;2024-01-16T01:48:50;1.73;;;1.00;;
9409;SDS011;4744;52.576;13.568;2024-01-16T01:51:17;0.93;;;0.80;;
9409;SDS011;4744;52.576;13.568;2024-01-16T01:53:45;1.40;;;0.80;;
9409;SDS011;4744;52.576;13.568;2024-01-16T01:56:15;3.47;;;1.10;;
9409;SDS011;4744;52.576;13.568;2024-01-16T01:58:46;1.20;;;1.03;;
9409;SDS011;4744;52.576;13.568;2024-01-16T02:01:16;0.70;;;0.70;;
9409;SDS011;4744;52.576;13.568;2024-01-16T02:03:46;1.67;;;0.80;;
9409;SDS011;4744;52.576;13.568;2024-01-16T02:06:15;1.57;;;0.93;;
9409;SDS011;4744;52.576;13.568;2024-01-16T02:08:42;0.73;;;0.70;;
9409;SDS011;4744;52.576;13.568;2024-01-16T02:11:10;0.87;;;0.70;;
9409;SDS011;4744;52.576;13.568;2024-01-16T02:13:37;0.80;;;0.80;;
9409;SDS011;4744;52.576;13.568;2024-01-16T02:16:04;1.43;;;0.83;;
9409;SDS011;4744;52.576;13.568;2024-01-16T02:18:31;1.73;;;0.90;;
9409;SDS011;4744;52.576;13.568;2024-01-16T02:21:00;1.10;;;0.83;;
9409;SDS011;4744;52.576;13.568;2024-01-16T02:23:33;1.23;;;0.80;;
9409;SDS011;4744;52.576;13.568;2024-01-16T02:26:00;1.70;;;0.93;;
9409;SDS011;4744;52.576;13.568;2024-01-16T02:28:28;1.77;;;0.80;;
9409;SDS011;4744;52.576;13.568;2024-01-16T02:30:55;2.87;;;0.90;;
9409;SDS011;4744;52.576;13.568;2024-01-16T02:33:22;0.60;;;0.60;;
9409;SDS011;4744;52.576;13.568;2024-01-16T02:35:49;0.83;;;0.80;;
9409;SDS011;4744;52.576;13.568;2024-01-16T02:38:16;0.83;;;0.83;;
9409;SDS011;4744;52.576;13.568;2024-01-16T02:40:44;0.80;;;0.80;;
9409;SDS011;4744;52.576;13.568;2024-01-16T02:43:11;2.20;;;0.80;;
9409;SDS011;4744;52.576;13.568;2024-01-16T02:45:38;2.27;;;1.50;;
9409;SDS011;4744;52.576;13.568;2024-01-16T02:48:05;1.43;;;1.03;;
9409;SDS011;4744;52.576;13.568;2024-01-16T02:50:32;1.17;;;1.13;;
9409;SDS011;4744;52.576;13.568;2024-01-16T02:52:59;1.37;;;1.00;;
9409;SDS011;4744;52.576;13.568;2024-01-16T02:55:26;1.10;;;0.97;;
9409;SDS011;4744;52.576;13.568;2024-01-16T02:57:54;2.30;;;1.20;;
9409;SDS011;4744;52.576;13.568;2024-01-16T03:00:21;1.00;;;1.00;;
9409;SDS011;4744;52.576;13.568;2024-01-16T03:02:51;1.03;;;0.93;;
9409;SDS011;4744;52.576;13.568;2024-01-16T03:05:18;0.90;;;0.90;;
9409;SDS011;4744;52.576;13.568;2024-01-16T03:07:45;2.17;;;1.10;;
9409;SDS011;4744;52.576;13.568;2024-01-16T03:10:12;1.20;;;0.80;;
9409;SDS011;4744;52.576;13.568;2024-01-16T03:12:39;0.57;;;0.57;;
9409;SDS011;4744;52.576;13.568;2024-01-16T03:15:07;0.90;;;0.90;;
9409;SDS011;4744;52.576;13.568;2024-01-16T03:17:35;1.40;;;0.70;;
9409;SDS011;4744;52.576;13.568;2024-01-16T03:20:02;0.83;;;0.83;;
9409;SDS011;4744;52.576;13.568;2024-01-16T03:22:29;0.80;;;0.80;;
9409;SDS011;4744;52.576;13.568;2024-01-16T03:24:56;0.67;;;0.67;;
9409;SDS011;4744;52.576;13.568;2024-01-16T03:27:23;0.90;;;0.90;;
9409;SDS011;4744;52.576;13.568;2024-01-16T03:29:50;0.80;;;0.80;;
9409;SDS011;4744;52.576;13.568;2024-01-16T03:32:18;1.40;;;1.30;;
9409;SDS011;4744;52.576;13.568;2024-01-16T03:34:45;1.50;;;1.10;;
9409;SDS011;4744;52.576;13.568;2024-01-16T03:37:12;1.07;;;1.07;;
9409;SDS011;4744;52.576;13.568;2024-01-16T03:39:39;1.23;;;1.10;;
9409;SDS011;4744;52.576;13.568;2024-01-16T03:42:06;1.70;;;1.30;;
9409;SDS011;4744;52.576;13.568;2024-01-16T03:44:33;1.27;;;1.17;;
9409;SDS011;4744;52.576;13.568;2024-01-16T03:47:05;1.33;;;1.23;;
9409;SDS011;4744;52.576;13.568;2024-01-16T03:49:34;1.20;;;1.10;;
9409;SDS011;4744;52.576;13.568;2024-01-16T03:52:01;2.33;;;0.80;;
9409;SDS011;4744;52.576;13.568;2024-01-16T03:54:28;1.43;;;1.00;;
9409;SDS011;4744;52.576;13.568;2024-01-16T03:56:55;1.23;;;1.13;;
9409;SDS011;4744;52.576;13.568;2024-01-16T03:59:22;1.40;;;1.30;;
9409;SDS011;4744;52.576;13.568;2024-01-16T04:01:49;0.90;;;0.90;;
9409;SDS011;4744;52.576;13.568;2024-01-16T04:04:16;1.30;;;1.10;;
9409;SDS011;4744;52.576;13.568;2024-01-16T04:06:45;1.27;;;1.27;;
9409;SDS011;4744;52.576;13.568;2024-01-16T04:09:12;1.63;;;1.53;;
9409;SDS011;4744;52.576;13.568;2024-01-16T04:11:39;1.70;;;1.60;;
9409;SDS011;4744;52.576;13.568;2024-01-16T04:14:06;2.37;;;1.60;;
9409;SDS011;4744;52.576;13.568;2024-01-16T04:16:33;3.97;;;1.80;;
9409;SDS011;4744;52.576;13.568;2024-01-16T04:19:00;3.37;;;1.83;;
9409;SDS011;4744;52.576;13.568;2024-01-16T04:21:27;1.97;;;1.63;;
9409;SDS011;4744;52.576;13.568;2024-01-16T04:23:55;1.53;;;1.43;;
9409;SDS011;4744;52.576;13.568;2024-01-16T04:26:22;3.30;;;1.77;;
9409;SDS011;4744;52.576;13.568;2024-01-16T04:28:50;3.10;;;2.20;;
9409;SDS011;4744;52.576;13.568;2024-01-16T04:31:16;3.87;;;1.90;;
9409;SDS011;4744;52.576;13.568;2024-01-16T04:33:44;1.87;;;1.70;;
9409;SDS011;4744;52.576;13.568;2024-01-16T04:36:11;1.93;;;1.70;;
9409;SDS011;4744;52.576;13.568;2024-01-16T04:38:38;1.73;;;1.63;;
9409;SDS011;4744;52.576;13.568;2024-01-16T04:41:06;2.00;;;1.90;;
9409;SDS011;4744;52.576;13.568;2024-01-16T04:43:33;2.23;;;2.00;;
9409;SDS011;4744;52.576;13.568;2024-01-16T04:46:00;3.27;;;1.97;;
9409;SDS011;4744;52.576;13.568;2024-01-16T04:48:28;2.13;;;1.93;;
9409;SDS011;4744;52.576;13.568;2024-01-16T04:50:55;3.13;;;2.20;;
9409;SDS011;4744;52.576;13.568;2024-01-16T04:53:22;2.37;;;2.20;;
9409;SDS011;4744;52.576;13.568;2024-01-16T04:55:48;3.23;;;2.40;;
9409;SDS011;4744;52.576;13.568;2024-01-16T04:58:17;7.13;;;2.70;;
9409;SDS011;4744;52.576;13.568;2024-01-16T05:00:44;2.57;;;2.07;;
9409;SDS011;4744;52.576;13.568;2024-01-16T05:03:11;2.50;;;2.07;;
9409;SDS011;4744;52.576;13.568;2024-01-16T05:05:38;2.40;;;2.20;;
9409;SDS011;4744;52.576;13.568;2024-01-16T05:08:05;2.37;;;2.17;;
9409;SDS011;4744;52.576;13.568;2024-01-16T05:10:32;4.60;;;2.50;;
9409;SDS011;4744;52.576;13.568;2024-01-16T05:12:59;3.23;;;2.30;;
9409;SDS011;4744;52.576;13.568;2024-01-16T05:15:27;2.63;;;2.43;;
9409;SDS011;4744;52.576;13.568;2024-01-16T05:17:54;3.53;;;2.30;;
9409;SDS011;4744;52.576;13.568;2024-01-16T05:20:21;2.40;;;2.13;;
9409;SDS011;4744;52.576;13.568;2024-01-16T05:22:48;2.87;;;2.30;;
9409;SDS011;4744;52.576;13.568;2024-01-16T05:25:15;3.97;;;2.20;;
9409;SDS011;4744;52.576;13.568;2024-01-16T05:27:43;2.87;;;2.30;;
9409;SDS011;4744;52.576;13.568;2024-01-16T05:30:10;2.40;;;2.20;;
9409;SDS011;4744;52.576;13.568;2024-01-16T05:32:39;3.20;;;2.53;;
9409;SDS011;4744;52.576;13.568;2024-01-16T05:35:06;4.40;;;2.90;;
9409;SDS011;4744;52.576;13.568;2024-01-16T05:37:34;4.20;;;2.40;;
9409;SDS011;4744;52.576;13.568;2024-01-16T05:40:01;3.23;;;2.43;;
9409;SDS011;4744;52.576;13.568;2024-01-16T05:42:29;4.27;;;2.63;;
9409;SDS011;4744;52.576;13.568;2024-01-16T05:44:56;2.90;;;2.70;;
9409;SDS011;4744;52.576;13.568;2024-01-16T05:47:23;2.73;;;2.37;;
9409;SDS011;4744;52.576;13.568;2024-01-16T05:49:54;3.40;;;2.53;;
9409;SDS011;4744;52.576;13.568;2024-01-16T05:52:21;3.57;;;2.37;;
9409;SDS011;4744;52.576;13.568;2024-01-16T05:54:48;2.60;;;2.30;;
9409;SDS011;4744;52.576;13.568;2024-01-16T05:57:15;3.83;;;2.90;;
9409;SDS011;4744;52.576;13.568;2024-01-16T05:59:42;2.67;;;2.27;;
9409;SDS011;4744;52.576;13.568;2024-01-16T06:02:09;2.40;;;2.20;;
9409;SDS011;4744;52.576;13.568;2024-01-16T06:04:36;2.50;;;2.30;;
9409;SDS011;4744;52.576;13.568;2024-01-16T06:07:05;2.67;;;2.43;;
9409;SDS011;4744;52.576;13.568;2024-01-16T06:09:32;3.30;;;2.30;;
9409;SDS011;4744;52.576;13.568;2024-01-16T06:11:59;2.67;;;2.47;;
9409;SDS011;4744;52.576;13.568;2024-01-16T06:14:26;3.20;;;2.43;;
9409;SDS011;4744;52.576;13.568;2024-01-16T06:16:53;2.90;;;2.60;;
9409;SDS011;4744;52.576;13.568;2024-01-16T06:19:19;2.60;;;2.40;;
9409;SDS011;4744;52.576;13.568;2024-01-16T06:21:46;2.73;;;2.53;;
9409;SDS011;4744;52.576;13.568;2024-01-16T06:24:15;3.30;;;2.63;;
9409;SDS011;4744;52.576;13.568;2024-01-16T06:26:42;2.80;;;2.57;;
9409;SDS011;4744;52.576;13.568;2024-01-16T06:29:09;5.90;;;3.23;;
9409;SDS011;4744;52.576;13.568;2024-01-16T06:31:36;3.23;;;2.97;;
9409;SDS011;4744;52.576;13.568;2024-01-16T06:34:03;4.33;;;3.30;;
9409;SDS011;4744;52.576;13.568;2024-01-16T06:36:30;3.90;;;3.20;;
9409;SDS011;4744;52.576;13.568;2024-01-16T06:38:57;3.83;;;3.40;;
9409;SDS011;4744;52.576;13.568;2024-01-16T06:41:26;4.07;;;3.07;;
9409;SDS011;4744;52.576;13.568;2024-01-16T06:43:53;4.37;;;3.23;;
9409;SDS011;4744;52.576;13.568;2024-01-16T06:46:20;4.20;;;3.50;;
9409;SDS011;4744;52.576;13.568;2024-01-16T06:48:46;3.77;;;3.10;;
9409;SDS011;4744;52.576;13.568;2024-01-16T06:51:14;3.87;;;3.43;;
9409;SDS011;4744;52.576;13.568;2024-01-16T06:53:41;3.90;;;2.97;;
9409;SDS011;4744;52.576;13.568;2024-01-16T06:56:08;5.37;;;3.37;;
9409;SDS011;4744;52.576;13.568;2024-01-16T06:58:36;5.13;;;3.37;;
9409;SDS011;4744;52.576;13.568;2024-01-16T07:01:03;4.17;;;3.70;;
9409;SDS011;4744;52.576;13.568;2024-01-16T07:03:30;4.47;;;3.87;;
9409;SDS011;4744;52.576;13.568;2024-01-16T07:05:57;4.63;;;3.80;;
9409;SDS011;4744;52.576;13.568;2024-01-16T07:08:24;3.77;;;3.47;;
9409;SDS011;4744;52.576;13.568;2024-01-16T07:10:51;4.13;;;3.57;;
9409;SDS011;4744;52.576;13.568;2024-01-16T07:13:18;4.50;;;3.30;;
9409;SDS011;4744;52.576;13.568;2024-01-16T07:15:46;4.23;;;3.57;;
9409;SDS011;4744;52.576;13.568;2024-01-16T07:18:13;4.10;;;3.70;;
9409;SDS011;4744;52.576;13.568;2024-01-16T07:20:40;3.47;;;3.17;;
9409;SDS011;4744;52.576;13.568;2024-01-16T07:23:07;4.57;;;3.33;;
9409;SDS011;4744;52.576;13.568;2024-01-16T07:25:34;3.70;;;3.40;;
9409;SDS011;4744;52.576;13.568;2024-01-16T07:28:01;3.37;;;3.00;;
9409;SDS011;4744;52.576;13.568;2024-01-16T07:30:28;3.30;;;3.00;;
9409;SDS011;4744;52.576;13.568;2024-01-16T07:32:56;5.03;;;3.73;;
9409;SDS011;4744;52.576;13.568;2024-01-16T07:35:23;4.13;;;3.30;;
9409;SDS011;4744;52.576;13.568;2024-01-16T07:37:50;4.47;;;3.67;;
9409;SDS011;4744;52.576;13.568;2024-01-16T07:40:17;3.60;;;3.30;;
9409;SDS011;4744;52.576;13.568;2024-01-16T07:42:45;3.80;;;3.40;;
9409;SDS011;4744;52.576;13.568;2024-01-16T07:45:12;5.50;;;3.70;;
9409;SDS011;4744;52.576;13.568;2024-01-16T07:47:39;3.87;;;3.47;;
9409;SDS011;4744;52.576;13.568;2024-01-16T07:50:08;5.60;;;4.10;;
9409;SDS011;4744;52.576;13.568;2024-01-16T07:52:35;5.53;;;3.80;;
9409;SDS011;4744;52.576;13.568;2024-01-16T07:55:02;4.20;;;3.40;;
9409;SDS011;4744;52.576;13.568;2024-01-16T07:57:29;5.07;;;3.63;;
9409;SDS011;4744;52.576;13.568;2024-01-16T07:59:56;6.37;;;3.90;;
9409;SDS011;4744;52.576;13.568;2024-01-16T08:02:26;3.87;;;3.47;;
9409;SDS011;4744;52.576;13.568;2024-01-16T08:04:57;3.77;;;3.23;;
9409;SDS011;4744;52.576;13.568;2024-01-16T08:07:26;4.40;;;3.70;;
9409;SDS011;4744;52.576;13.568;2024-01-16T08:09:53;3.60;;;3.27;;
9409;SDS011;4744;52.576;13.568;2024-01-16T08:12:20;4.63;;;3.30;;
9409;SDS011;4744;52.576;13.568;2024-01-16T08:14:47;3.40;;;2.97;;
9409;SDS011;4744;52.576;13.568;2024-01-16T08:17:14;3.57;;;3.27;;
9409;SDS011;4744;52.576;13.568;2024-01-16T08:19:42;2.93;;;2.73;;
9409;SDS011;4744;52.576;13.568;2024-01-16T08:22:09;3.93;;;2.80;;
9409;SDS011;4744;52.576;13.568;2024-01-16T08:24:37;3.00;;;2.70;;
9409;SDS011;4744;52.576;13.568;2024-01-16T08:27:04;3.80;;;3.30;;
9409;SDS011;4744;52.576;13.568;2024-01-16T08:29:31;3.23;;;2.93;;
9409;SDS011;4744;52.576;13.568;2024-01-16T08:31:58;3.20;;;2.87;;
9409;SDS011;4744;52.576;13.568;2024-01-16T08:34:25;3.17;;;2.87;;
9409;SDS011;4744;52.576;13.568;2024-01-16T08:36:52;3.03;;;2.63;;
9409;SDS011;4744;52.576;13.568;2024-01-16T08:39:21;3.10;;;2.80;;
9409;SDS011;4744;52.576;13.568;2024-01-16T08:41:50;3.23;;;2.83;;
9409;SDS011;4744;52.576;13.568;2024-01-16T08:44:18;4.60;;;3.00;;
9409;SDS011;4744;52.576;13.568;2024-01-16T08:46:44;4.57;;;3.10;;
9409;SDS011;4744;52.576;13.568;2024-01-16T08:49:12;7.00;;;3.13;;
9409;SDS011;4744;52.576;13.568;2024-01-16T08:51:39;3.23;;;2.70;;
9409;SDS011;4744;52.576;13.568;2024-01-16T08:54:06;3.37;;;2.47;;
9409;SDS011;4744;52.576;13.568;2024-01-16T08:56:33;3.00;;;2.70;;
9409;SDS011;4744;52.576;13.568;2024-01-16T08:59:01;3.20;;;2.90;;
9409;SDS011;4744;52.576;13.568;2024-01-16T09:01:28;3.13;;;2.55;;
9409;SDS011;4744;52.576;13.568;2024-01-16T09:03:55;3.23;;;2.60;;
9409;SDS011;4744;52.576;13.568;2024-01-16T09:06:22;3.17;;;2.70;;
9409;SDS011;4744;52.576;13.568;2024-01-16T09:08:49;3.57;;;2.47;;
9409;SDS011;4744;52.576;13.568;2024-01-16T09:11:16;4.50;;;2.87;;
9409;SDS011;4744;52.576;13.568;2024-01-16T09:13:43;3.17;;;2.87;;
9409;SDS011;4744;52.576;13.568;2024-01-16T09:16:11;3.70;;;3.30;;
9409;SDS011;4744;52.576;13.568;2024-01-16T09:18:38;3.83;;;3.03;;
9409;SDS011;4744;52.576;13.568;2024-01-16T09:21:05;2.90;;;2.63;;
9409;SDS011;4744;52.576;13.568;2024-01-16T09:23:32;4.85;;;3.00;;
9409;SDS011;4744;52.576;13.568;2024-01-16T09:25:59;3.42;;;2.78;;
9409;SDS011;4744;52.576;13.568;2024-01-16T09:28:26;4.00;;;2.92;;
9409;SDS011;4744;52.576;13.568;2024-01-16T09:30:54;3.80;;;3.00;;
9409;SDS011;4744;52.576;13.568;2024-01-16T09:33:23;3.40;;;3.10;;
9409;SDS011;4744;52.576;13.568;2024-01-16T09:35:51;3.35;;;3.05;;
9409;SDS011;4744;52.576;13.568;2024-01-16T09:38:18;3.90;;;3.50;;
9409;SDS011;4744;52.576;13.568;2024-01-16T09:40:45;4.18;;;3.67;;
9409;SDS011;4744;52.576;13.568;2024-01-16T09:43:12;5.07;;;3.67;;
9409;SDS011;4744;52.576;13.568;2024-01-16T09:45:40;4.53;;;3.70;;
9409;SDS011;4744;52.576;13.568;2024-01-16T09:48:07;4.95;;;3.60;;
9409;SDS011;4744;52.576;13.568;2024-01-16T09:50:36;4.13;;;3.63;;
9409;SDS011;4744;52.576;13.568;2024-01-16T09:53:03;4.05;;;3.65;;
9409;SDS011;4744;52.576;13.568;2024-01-16T09:55:30;4.00;;;3.63;;
9409;SDS011;4744;52.576;13.568;2024-01-16T09:57:57;4.97;;;3.72;;
9409;SDS011;4744;52.576;13.568;2024-01-16T10:00:25;4.22;;;3.83;;
9409;SDS011;4744;52.576;13.568;2024-01-16T10:02:53;4.25;;;3.88;;
9409;SDS011;4744;52.576;13.568;2024-01-16T10:05:23;4.53;;;4.13;;
9409;SDS011;4744;52.576;13.568;2024-01-16T10:07:53;5.72;;;4.45;;
9409;SDS011;4744;52.576;13.568;2024-01-16T10:10:20;4.82;;;4.32;;
9409;SDS011;4744;52.576;13.568;2024-01-16T10:12:48;7.07;;;4.80;;
9409;SDS011;4744;52.576;13.568;2024-01-16T10:15:16;5.18;;;4.20;;
9409;SDS011;4744;52.576;13.568;2024-01-16T10:17:47;7.60;;;5.15;;
9409;SDS011;4744;52.576;13.568;2024-01-16T10:20:14;6.97;;;4.53;;
9409;SDS011;4744;52.576;13.568;2024-01-16T10:22:53;4.95;;;4.40;;
9409;SDS011;4744;52.576;13.568;2024-01-16T10:25:20;6.20;;;4.65;;
9409;SDS011;4744;52.576;13.568;2024-01-16T10:27:48;5.50;;;5.00;;
9409;SDS011;4744;52.576;13.568;2024-01-16T10:30:20;4.88;;;4.45;;
9409;SDS011;4744;52.576;13.568;2024-01-16T10:32:48;5.55;;;3.78;;
9409;SDS011;4744;52.576;13.568;2024-01-16T10:35:15;6.60;;;3.88;;
9409;SDS011;4744;52.576;13.568;2024-01-16T10:37:42;4.70;;;3.58;;
9409;SDS011;4744;52.576;13.568;2024-01-16T10:40:12;4.13;;;3.70;;
9409;SDS011;4744;52.576;13.568;2024-01-16T10:42:41;3.90;;;3.47;;
9409;SDS011;4744;52.576;13.568;2024-01-16T10:45:08;3.80;;;3.50;;
9409;SDS011;4744;52.576;13.568;2024-01-16T10:47:43;3.83;;;3.30;;
9409;SDS011;4744;52.576;13.568;2024-01-16T10:50:11;4.38;;;3.20;;
9409;SDS011;4744;52.576;13.568;2024-01-16T10:52:39;4.38;;;3.08;;
9409;SDS011;4744;52.576;13.568;2024-01-16T10:55:19;4.88;;;3.28;;
9409;SDS011;4744;52.576;13.568;2024-01-16T10:57:48;4.18;;;3.40;;
9409;SDS011;4744;52.576;13.568;2024-01-16T11:00:16;4.30;;;2.85;;
9409;SDS011;4744;52.576;13.568;2024-01-16T11:02:49;3.42;;;2.83;;
9409;SDS011;4744;52.576;13.568;2024-01-16T11:05:17;3.08;;;2.80;;
9409;SDS011;4744;52.576;13.568;2024-01-16T11:07:46;4.25;;;2.50;;
9409;SDS011;4744;52.576;13.568;2024-01-16T11:10:14;3.03;;;2.80;;
9409;SDS011;4744;52.576;13.568;2024-01-16T11:12:42;2.63;;;2.42;;
9409;SDS011;4744;52.576;13.568;2024-01-16T11:15:11;2.75;;;2.55;;
9409;SDS011;4744;52.576;13.568;2024-01-16T11:17:39;2.80;;;2.60;;
9409;SDS011;4744;52.576;13.568;2024-01-16T11:20:10;3.88;;;2.72;;
9409;SDS011;4744;52.576;13.568;2024-01-16T11:22:39;3.72;;;2.50;;
9409;SDS011;4744;52.576;13.568;2024-01-16T11:25:08;4.68;;;2.50;;
9409;SDS011;4744;52.576;13.568;2024-01-16T11:27:36;3.38;;;2.25;;
9409;SDS011;4744;52.576;13.568;2024-01-16T11:30:05;2.92;;;2.30;;
9409;SDS011;4744;52.576;13.568;2024-01-16T11:32:33;4.40;;;3.00;;
9409;SDS011;4744;52.576;13.568;2024-01-16T11:35:02;2.78;;;2.20;;
9409;SDS011;4744;52.576;13.568;2024-01-16T11:37:29;4.03;;;2.40;;
9409;SDS011;4744;52.576;13.568;2024-01-16T11:42:47;3.42;;;2.28;;
9409;SDS011;4744;52.576;13.568;2024-01-16T11:48:18;3.58;;;2.15;;
9409;SDS011;4744;52.576;13.568;2024-01-16T11:50:46;2.67;;;2.45;;
9409;SDS011;4744;52.576;13.568;2024-01-16T11:53:32;5.13;;;2.20;;
9409;SDS011;4744;52.576;13.568;2024-01-16T11:59:01;2.85;;;2.58;;
9409;SDS011;4744;52.576;13.568;2024-01-16T12:01:46;4.65;;;2.30;;
9409;SDS011;4744;52.576;13.568;2024-01-16T12:04:18;2.97;;;2.25;;
9409;SDS011;4744;52.576;13.568;2024-01-16T12:06:56;4.20;;;2.50;;
9409;SDS011;4744;52.576;13.568;2024-01-16T12:09:25;6.68;;;2.92;;
9409;SDS011;4744;52.576;13.568;2024-01-16T12:11:55;9.68;;;2.92;;
9409;SDS011;4744;52.576;13.568;2024-01-16T12:14:23;6.32;;;2.95;;
9409;SDS011;4744;52.576;13.568;2024-01-16T12:16:52;3.10;;;2.70;;
9409;SDS011;4744;52.576;13.568;2024-01-16T12:19:18;3.28;;;2.67;;
9409;SDS011;4744;52.576;13.568;2024-01-16T12:21:45;5.22;;;2.97;;
9409;SDS011;4744;52.576;13.568;2024-01-16T12:24:12;6.95;;;3.42;;
9409;SDS011;4744;52.576;13.568;2024-01-16T12:26:39;5.60;;;3.28;;
9409;SDS011;4744;52.576;13.568;2024-01-16T12:29:06;6.05;;;3.03;;
9409;SDS011;4744;52.576;13.568;2024-01-16T12:31:33;5.00;;;3.40;;
9409;SDS011;4744;52.576;13.568;2024-01-16T12:34:08;4.90;;;3.50;;
9409;SDS011;4744;52.576;13.568;2024-01-16T12:36:36;6.75;;;4.25;;
9409;SDS011;4744;52.576;13.568;2024-01-16T12:39:03;6.93;;;4.03;;
9409;SDS011;4744;52.576;13.568;2024-01-16T12:41:37;5.93;;;3.90;;
9409;SDS011;4744;52.576;13.568;2024-01-16T12:44:10;5.55;;;3.90;;
9409;SDS011;4744;52.576;13.568;2024-01-16T12:46:38;4.82;;;3.72;;
9409;SDS011;4744;52.576;13.568;2024-01-16T12:49:06;7.72;;;4.53;;
9409;SDS011;4744;52.576;13.568;2024-01-16T12:51:37;5.35;;;3.67;;
9409;SDS011;4744;52.576;13.568;2024-01-16T12:54:14;5.30;;;3.80;;
9409;SDS011;4744;52.576;13.568;2024-01-16T12:56:42;10.30;;;4.90;;
9409;SDS011;4744;52.576;13.568;2024-01-16T12:59:09;10.75;;;4.47;;
9409;SDS011;4744;52.576;13.568;2024-01-16T13:01:39;7.28;;;4.32;;
9409;SDS011;4744;52.576;13.568;2024-01-16T13:04:08;7.15;;;4.13;;
9409;SDS011;4744;52.576;13.568;2024-01-16T13:06:35;5.20;;;3.67;;
9409;SDS011;4744;52.576;13.568;2024-01-16T13:09:07;7.43;;;4.32;;
9409;SDS011;4744;52.576;13.568;2024-01-16T13:11:48;9.98;;;4.35;;
9409;SDS011;4744;52.576;13.568;2024-01-16T13:14:16;7.85;;;3.70;;
9409;SDS011;4744;52.576;13.568;2024-01-16T13:16:45;6.78;;;3.72;;
9409;SDS011;4744;52.576;13.568;2024-01-16T13:19:15;5.82;;;3.72;;
9409;SDS011;4744;52.576;13.568;2024-01-16T13:21:43;6.13;;;2.85;;
9409;SDS011;4744;52.576;13.568;2024-01-16T13:24:11;6.05;;;2.80;;
9409;SDS011;4744;52.576;13.568;2024-01-16T13:26:38;4.20;;;3.38;;
9409;SDS011;4744;52.576;13.568;2024-01-16T13:29:06;7.15;;;3.22;;
9409;SDS011;4744;52.576;13.568;2024-01-16T13:31:34;5.68;;;2.83;;
9409;SDS011;4744;52.576;13.568;2024-01-16T13:34:01;3.97;;;3.05;;
9409;SDS011;4744;52.576;13.568;2024-01-16T13:36:28;12.73;;;3.35;;
9409;SDS011;4744;52.576;13.568;2024-01-16T13:38:55;5.88;;;3.05;;
9409;SDS011;4744;52.576;13.568;2024-01-16T13:41:23;4.43;;;2.90;;
9409;SDS011;4744;52.576;13.568;2024-01-16T13:43:50;7.40;;;3.22;;
9409;SDS011;4744;52.576;13.568;2024-01-16T13:46:17;4.82;;;2.92;;
9409;SDS011;4744;52.576;13.568;2024-01-16T13:48:44;4.53;;;3.00;;
9409;SDS011;4744;52.576;13.568;2024-01-16T13:51:11;6.57;;;3.20;;
9409;SDS011;4744;52.576;13.568;2024-01-16T13:53:38;3.92;;;2.90;;
9409;SDS011;4744;52.576;13.568;2024-01-16T13:56:05;5.63;;;2.85;;
9409;SDS011;4744;52.576;13.568;2024-01-16T13:58:34;4.53;;;3.00;;
9409;SDS011;4744;52.576;13.568;2024-01-16T14:01:01;4.80;;;2.60;;
9409;SDS011;4744;52.576;13.568;2024-01-16T14:03:29;4.88;;;2.50;;
9409;SDS011;4744;52.576;13.568;2024-01-16T14:05:56;9.20;;;2.75;;
9409;SDS011;4744;52.576;13.568;2024-01-16T14:08:22;6.57;;;2.90;;
9409;SDS011;4744;52.576;13.568;2024-01-16T14:10:49;5.85;;;2.85;;
9409;SDS011;4744;52.576;13.568;2024-01-16T14:13:16;5.00;;;2.50;;
9409;SDS011;4744;52.576;13.568;2024-01-16T14:15:44;6.22;;;2.83;;
9409;SDS011;4744;52.576;13.568;2024-01-16T14:18:11;6.25;;;2.90;;
9409;SDS011;4744;52.576;13.568;2024-01-16T14:20:38;3.28;;;2.63;;
9409;SDS011;4744;52.576;13.568;2024-01-16T14:23:05;5.63;;;2.50;;
9409;SDS011;4744;52.576;13.568;2024-01-16T14:25:32;5.63;;;2.72;;
9409;SDS011;4744;52.576;13.568;2024-01-16T14:28:00;7.03;;;2.70;;
9409;SDS011;4744;52.576;13.568;2024-01-16T14:30:28;4.78;;;2.60;;
9409;SDS011;4744;52.576;13.568;2024-01-16T14:32:57;5.07;;;2.70;;
9409;SDS011;4744;52.576;13.568;2024-01-16T14:35:24;5.65;;;3.13;;
9409;SDS011;4744;52.576;13.568;2024-01-16T14:37:51;6.45;;;3.10;;
9409;SDS011;4744;52.576;13.568;2024-01-16T14:40:19;6.45;;;2.85;;
9409;SDS011;4744;52.576;13.568;2024-01-16T14:42:50;5.50;;;3.00;;
9409;SDS011;4744;52.576;13.568;2024-01-16T14:45:18;7.78;;;2.67;;
9409;SDS011;4744;52.576;13.568;2024-01-16T14:47:46;5.38;;;2.60;;
9409;SDS011;4744;52.576;13.568;2024-01-16T14:50:15;7.75;;;2.88;;
9409;SDS011;4744;52.576;13.568;2024-01-16T14:52:43;6.38;;;2.90;;
9409;SDS011;4744;52.576;13.568;2024-01-16T14:55:10;6.65;;;3.20;;
9409;SDS011;4744;52.576;13.568;2024-01-16T14:57:38;5.10;;;2.40;;
9409;SDS011;4744;52.576;13.568;2024-01-16T15:00:08;3.10;;;2.63;;
9409;SDS011;4744;52.576;13.568;2024-01-16T15:02:44;5.80;;;2.88;;
9409;SDS011;4744;52.576;13.568;2024-01-16T15:05:12;4.35;;;2.90;;
9409;SDS011;4744;52.576;13.568;2024-01-16T15:07:41;6.82;;;2.55;;
9409;SDS011;4744;52.576;13.568;2024-01-16T15:10:09;3.97;;;2.50;;
9409;SDS011;4744;52.576;13.568;2024-01-16T15:12:37;5.15;;;2.97;;